Pagrindinis puslapis
METAR-TAF:

METAR-TAF

Oro uostai :

Charbinas, Kinija

platuma: 45-45N, ilguma: 126-46E, Aukštis: 143 m

Dabartinis oras

Ataskaita buvo paskelbta 40 minutes, ne 22:00 UTC
Vėjas 2 kt iš Rytų
Temperatūra -16°C
Drėgmė 92%
Slėgis 1017 hPa
Matomumas: 1600 m
rūkana

METAR: ZYHB 092200Z 10001MPS 1600 BR NSC M16/M17 Q1017 BECMG TL2330 1200

Laikas: 06:40 (22:40 UTC)

Prognozė

Ataskaita buvo paskelbta 7 valandos ir 34 minutes, ne 15:06 UTC
Prognozė galioja nuo 09 metu 18 UTC su 10 metu 18 UTC
Vėjas 6 kt iš Pietų/Pietvakarių
Matomumas: 3000 m
Išsisklaidę debesys ne aukštis 2000 ft
rūkana
Laikinai
nuo 09 metu 18 UTC su 09 metu 24 UTC
Matomumas: 1200 m
rūkana, migla

TAF: ZYHB 091506Z 0918/1018 20003MPS 3000 BR SCT020 TXM07/06Z TNM16/23Z TEMPO 0918/0924 1200 BR HZ

Orai ataskaitas ir orų prognozės (METAR, TAF).

turimą stotys yra geltonos ir raudonos taškus žemėlapyje.

Perkelti pele per norėdami pamatyti stoties vardą.

Tada spustelėkite, norėdami matyti oro stebėjimo ir prognozės.

Norėdami pakeisti žemėlapį: spustelėkite ant žalios mygtukų su juodo kryžiaus žemyn,; žalią mygtuką su brūkšneliu, jei norite nutolinti; arba žalių rodyklių gretimoms žemėlapius.


METAR-TAF: